Terminal Aerodrome Forecast
Issued by NWS Mt. Holly, NJ

Home | Current Version | Previous Version | Text Only | Print | Product List | Glossary On
Versions: 1 2 3 4 5 6 7 8 9 10 11 12 13 14 15 16 17 18 19 20 21 22 23 24 25 26 27 28
352
FTUS41 KPHI 250532
TAFPHL
TAF
KPHL 250532Z 2506/2612 08010KT 6SM -RA BR OVC010
     FM250900 07014KT 3SM RA BR OVC008
     FM251700 12007KT P6SM OVC015
     FM252100 13006KT 4SM -SHRA BR OVC015 PROB30 2521/2524 TSRA
      OVC010CB
     FM260100 15005KT 5SM -SHRA BR OVC035
     FM260600 27006KT P6SM BKN110
     FM260800 26006KT P6SM OVC010=

USA.gov is the U.S. government's official web portal to all federal, state and local government web resources and services.